Flight Track Log - Related Links

Times and Time Zones

All times are in EDT time to prevent confusion due to time zone crossing. See the KAL9277 flight status page for this flight to view local times or setup timezone preferences in your user account.

Time Position Orientation Groundspeed Altitude Reporting Facility
EDT Latitude Longitude Course Direction KTS MPH feet Rate Location/Type
Sat 05:00:23 AM 32.9137 -97.0479 360° North 166 191 1,600  Level FlightAware ADS-B
Sat 05:03:43 AM 32.8526 -97.0519 181° South 171 197 2,200 493 Climbing FlightAware ADS-B
Sat 05:04:51 AM 32.7963 -97.0526 181° South 190 219 3,800 1,200 Climbing FlightAware ADS-B
Sat 05:05:13 AM 32.7757 -97.0530 181° South 212 244 4,000 632 Climbing FlightAware ADS-B
Sat 05:05:29 AM 32.7617 -97.0532 181° South 230 265 4,200 1,200 Climbing FlightAware ADS-B
Sat 05:05:53 AM 32.7405 -97.0536 181° South 244 281 4,800 1,395 Climbing FlightAware ADS-B
Sat 05:06:12 AM 32.7104 -97.0547 186° South 259 298 5,200 1,579 Climbing FlightAware ADS-B
Sat 05:06:31 AM 32.6876 -97.0604 195° South 267 307 5,800 2,000 Climbing FlightAware ADS-B
Sat 05:06:51 AM 32.6633 -97.0677 195° South 272 313 6,500 1,895 Climbing FlightAware ADS-B
Sat 05:07:09 AM 32.6468 -97.0727 194° South 273 314 7,000 2,100 Climbing FlightAware ADS-B
Sat 05:07:31 AM 32.6142 -97.0835 195° South 284 327 7,900 2,182 Climbing FlightAware ADS-B
Sat 05:07:53 AM 32.5881 -97.0916 195° South 292 336 8,600 1,857 Climbing FlightAware ADS-B
Sat 05:08:13 AM 32.5595 -97.1006 195° South 296 341 9,200 2,100 Climbing FlightAware ADS-B
Sat 05:08:33 AM 32.5325 -97.1090 195° South 299 344 10,000 1,655 Climbing FlightAware ADS-B
Sat 05:09:11 AM 32.4789 -97.1256 195° South 329 379 10,800 1,237 Climbing FlightAware ADS-B
Sat 05:10:10 AM 32.3859 -97.1540 195° South 376 433 12,000 1,800 Climbing FlightAware ADS-B
Sat 05:11:11 AM 32.2791 -97.1856 190° South 394 453 14,400 2,385 Climbing FlightAware ADS-B
Sat 05:11:28 AM 32.2483 -97.1911 188° South 397 457 15,100 2,557 Climbing FlightAware ADS-B
Sat 05:12:12 AM 32.1681 -97.2017 187° South 408 470 17,000 2,613 Climbing FlightAware ADS-B (KHPY)
Sat 05:12:30 AM 32.1329 -97.2061 186° South 412 474 17,800 2,600 Climbing FlightAware ADS-B
Sat 05:12:42 AM 32.1101 -97.2091 187° South 414 476 18,300 2,400 Climbing FlightAware ADS-B (KHPY)
Sat 05:13:10 AM 32.0555 -97.2164 186° South 421 484 19,400 2,057 Climbing FlightAware ADS-B
Sat 05:13:17 AM 32.0489 -97.2171 187° South 421 484 19,500 2,182 Climbing FlightAware ADS-B (KHPY)
Sat 05:13:43 AM 31.9930 -97.2247 186° South 428 493 20,600 2,308 Climbing FlightAware ADS-B
Sat 05:13:56 AM 31.9703 -97.2277 187° South 428 493 21,000 2,154 Climbing FlightAware ADS-B (KHPY)
Sat 05:14:22 AM 31.9130 -97.2355 187° South 435 501 22,000 2,129 Climbing FlightAware ADS-B
Sat 05:14:27 AM 31.9071 -97.2363 187° South 435 501 22,100 2,000 Climbing FlightAware ADS-B (KHPY)
Sat 05:14:52 AM 31.8579 -97.2427 187° South 441 507 23,000 2,069 Climbing FlightAware ADS-B
Sat 05:14:56 AM 31.8442 -97.2447 187° South 441 507 23,100 1,886 Climbing FlightAware ADS-B (KHPY)
Sat 05:15:27 AM 31.7835 -97.2529 186° South 447 514 24,100 1,967 Climbing FlightAware ADS-B
Sat 05:15:57 AM 31.7192 -97.2614 186° South 452 520 25,100 1,950 Climbing FlightAware ADS-B
Sat 05:16:07 AM 31.7079 -97.2628 188° South 453 521 25,400 1,800 Climbing FlightAware ADS-B
Sat 05:16:27 AM 31.6579 -97.2715 191° South 455 524 26,000 1,714 Climbing FlightAware ADS-B (KHPY)
Sat 05:16:42 AM 31.6253 -97.2794 193° South 458 527 26,400 1,600 Climbing FlightAware ADS-B
Sat 05:16:57 AM 31.5935 -97.2882 193° South 460 529 26,800 1,500 Climbing FlightAware ADS-B (KHPY)
Sat 05:17:06 AM 31.5752 -97.2921 189° South 464 534 27,000 1,200 Climbing FlightAware ADS-B (KHPY)
Sat 05:17:12 AM 31.5628 -97.2942 187° South 467 537 27,100 1,200 Climbing FlightAware ADS-B
Sat 05:17:16 AM 31.5528 -97.2955 188° South 468 539 27,200 1,412 Climbing FlightAware ADS-B (KHPY)
Sat 05:17:46 AM 31.4882 -97.3054 188° South 475 547 27,900 1,385 Climbing FlightAware ADS-B (KHPY)
Sat 05:17:55 AM 31.4693 -97.3088 189° South 476 548 28,100 1,400 Climbing FlightAware ADS-B
Sat 05:18:16 AM 31.4227 -97.3171 190° South 481 554 28,600 1,400 Climbing FlightAware ADS-B (KHPY)
Sat 05:18:25 AM 31.4031 -97.3209 189° South 482 555 28,800 1,355 Climbing FlightAware ADS-B
Sat 05:18:47 AM 31.3544 -97.3306 190° South 486 559 29,300 737 Climbing FlightAware ADS-B (KHPY)
Sat 05:19:22 AM 31.3395 -97.3333 190° South 487 560 29,500 1,545 Climbing FlightAware ADS-B (KHPY)
Sat 05:19:53 AM 31.2072 -97.3607 190° South 490 564 31,000 2,314 Climbing FlightAware ADS-B
Sat 05:20:32 AM 31.1187 -97.3793 190° South 488 562 32,200 1,840 Climbing FlightAware ADS-B
Sat 05:21:08 AM 31.0399 -97.3959 190° South 483 556 33,300 1,727 Climbing FlightAware ADS-B
Sat 05:21:38 AM 30.9731 -97.4094 190° South 477 549 34,100 1,714 Climbing FlightAware ADS-B (KGTU)
Sat 05:22:11 AM 30.9066 -97.4231 190° South 471 542 35,100 1,594 Climbing FlightAware ADS-B
Sat 05:22:42 AM 30.8366 -97.4371 191° South 466 536 35,800 1,200 Climbing FlightAware ADS-B
Sat 05:22:46 AM 30.8278 -97.4398 194° South 462 532 35,800 600 Level FlightAware ADS-B (KHPY)
Sat 05:22:52 AM 30.8153 -97.4440 199° South 456 525 35,900 571 Climbing FlightAware ADS-B
Sat 05:23:07 AM 30.7875 -97.4578 210° Southwest 444 511 36,000 375 Climbing FlightAware ADS-B (KHPY)
Sat 05:23:08 AM 30.7849 -97.4602 210° Southwest 444 511 36,000  Level FlightAware ADS-B
Sat 05:23:31 AM 30.7435 -97.4901 212° Southwest 436 502 36,000  Level FlightAware ADS-B (KGTU)
Sat 05:24:02 AM 30.6885 -97.5254 208° Southwest 443 510 36,000  Level FlightAware ADS-B (KGTU)
Sat 05:24:23 AM 30.6515 -97.5486 208° Southwest 436 502 36,000  Level FlightAware ADS-B (KGTU)
Sat 05:24:43 AM 30.6134 -97.5710 207° Southwest 443 510 36,000  Level FlightAware ADS-B
Sat 05:24:52 AM 30.5979 -97.5795 207° Southwest 435 501 36,000  Level FlightAware ADS-B (KGTU)
Sat 05:25:02 AM 30.5795 -97.5901 207° Southwest 434 499 36,000  Level FlightAware ADS-B (KGTU)
Sat 05:25:12 AM 30.5604 -97.6005 207° Southwest 434 499 36,000  Level FlightAware ADS-B (KGTU)
Sat 05:25:14 AM 30.5576 -97.6026 206° Southwest 441 507 36,000  Level FlightAware ADS-B
Sat 05:25:42 AM 30.5060 -97.6317 206° Southwest 433 498 36,000  Level FlightAware ADS-B (KGTU)
Sat 05:25:44 AM 30.5021 -97.6337 206° Southwest 440 506 36,000  Level FlightAware ADS-B
Sat 05:26:13 AM 30.4497 -97.6635 206° Southwest 432 497 36,000  Level FlightAware ADS-B (KGTU)
Sat 05:26:29 AM 30.4206 -97.6800 206° Southwest 439 505 36,000  Level FlightAware ADS-B
Sat 05:26:43 AM 30.3946 -97.6952 208° Southwest 437 503 36,000  Level FlightAware ADS-B (KGTU)
Sat 05:26:59 AM 30.3657 -97.7127 208° Southwest 437 503 36,000  Level FlightAware ADS-B
Sat 05:27:13 AM 30.3415 -97.7282 208° Southwest 437 503 36,000  Level FlightAware ADS-B (KGTU)
Sat 05:27:45 AM 30.2837 -97.7635 208° Southwest 437 503 36,000  Level FlightAware ADS-B
Sat 05:27:51 AM 30.2726 -97.7700 208° Southwest 436 502 36,000  Level FlightAware ADS-B (KGTU)
Sat 05:28:02 AM 30.2540 -97.7821 208° Southwest 435 501 36,000  Level FlightAware ADS-B (KHPY)
Sat 05:28:16 AM 30.2286 -97.7973 208° Southwest 437 503 36,000  Level FlightAware ADS-B
Sat 05:28:22 AM 30.2187 -97.8039 208° Southwest 436 502 36,000  Level FlightAware ADS-B
Sat 05:28:33 AM 30.2000 -97.8147 208° Southwest 436 502 36,000  Level FlightAware ADS-B (KHPY)
Sat 05:28:46 AM 30.1747 -97.8298 208° Southwest 436 502 36,000  Level FlightAware ADS-B
Sat 05:28:52 AM 30.1642 -97.8364 208° Southwest 436 502 36,000  Level FlightAware ADS-B
Sat 05:29:02 AM 30.1466 -97.8472 208° Southwest 436 502 36,000  Level FlightAware ADS-B (KHPY)
Sat 05:29:17 AM 30.1194 -97.8635 208° Southwest 437 503 36,000  Level FlightAware ADS-B
Sat 05:29:23 AM 30.1110 -97.8689 208° Southwest 436 502 36,000  Level FlightAware ADS-B (KHPY)
Sat 05:29:47 AM 30.0646 -97.8969 208° Southwest 437 503 36,000  Level FlightAware ADS-B
Sat 05:29:51 AM 30.0591 -97.9002 208° Southwest 436 502 36,000  Level FlightAware ADS-B
Sat 05:30:02 AM 30.0388 -97.9121 208° Southwest 437 503 36,000  Level FlightAware ADS-B (KHPY)
Sat 05:30:18 AM 30.0105 -97.9294 208° Southwest 437 503 36,000  Level FlightAware ADS-B
Sat 05:30:25 AM 29.9976 -97.9369 208° Southwest 437 503 36,000  Level FlightAware ADS-B
Sat 05:30:32 AM 29.9859 -97.9435 208° Southwest 437 503 36,000  Level FlightAware ADS-B (KHPY)
Sat 05:30:51 AM 29.9501 -97.9651 208° Southwest 437 503 36,000  Level FlightAware ADS-B
Sat 05:30:56 AM 29.9420 -97.9705 208° Southwest 436 502 36,000  Level FlightAware ADS-B
Sat 05:31:03 AM 29.9303 -97.9771 208° Southwest 436 502 36,000  Level FlightAware ADS-B (KHPY)
Sat 05:31:22 AM 29.8948 -97.9986 208° Southwest 437 503 36,000  Level FlightAware ADS-B
Sat 05:31:29 AM 29.8851 -98.0051 208° Southwest 437 503 36,000  Level FlightAware ADS-B
Sat 05:31:32 AM 29.8772 -98.0095 208° Southwest 437 503 36,000  Level FlightAware ADS-B (KHPY)
Sat 05:31:55 AM 29.8363 -98.0343 208° Southwest 436 502 36,000  Level FlightAware ADS-B
Sat 05:31:59 AM 29.8298 -98.0386 208° Southwest 437 503 36,000  Level FlightAware ADS-B
Sat 05:32:02 AM 29.8235 -98.0419 208° Southwest 437 503 36,000  Level FlightAware ADS-B (KHPY)
Sat 05:32:27 AM 29.7789 -98.0689 208° Southwest 436 502 36,000  Level FlightAware ADS-B
Sat 05:32:46 AM 29.7469 -98.0883 208° Southwest 437 503 36,000  Level FlightAware ADS-B
Sat 05:33:01 AM 29.7182 -98.1054 208° Southwest 436 502 36,000  Level FlightAware ADS-B
Sat 05:33:02 AM 29.7171 -98.1055 208° Southwest 435 501 36,000  Level FlightAware ADS-B (KHPY)
Sat 05:33:25 AM 29.6757 -98.1313 208° Southwest 436 502 36,000  Level FlightAware ADS-B
Sat 05:33:32 AM 29.6618 -98.1388 208° Southwest 435 501 36,000  Level FlightAware ADS-B (KHPY)
Sat 05:33:36 AM 29.6558 -98.1431 208° Southwest 436 502 36,000  Level FlightAware ADS-B
Sat 05:33:59 AM 29.6155 -98.1667 208° Southwest 436 502 36,000  Level FlightAware ADS-B
Sat 05:34:09 AM 29.5967 -98.1785 208° Southwest 436 502 36,000  Level FlightAware ADS-B
Sat 05:34:32 AM 29.5564 -98.2021 208° Southwest 436 502 36,000  Level FlightAware ADS-B (KHPY)
Sat 05:34:34 AM 29.5510 -98.2053 208° Southwest 437 503 36,000  Level FlightAware ADS-B
Sat 05:34:39 AM 29.5419 -98.2106 208° Southwest 437 503 36,000  Level FlightAware ADS-B
Sat 05:35:02 AM 29.5012 -98.2353 208° Southwest 437 503 36,000  Level FlightAware ADS-B (KHPY)
Sat 05:35:09 AM 29.4879 -98.2429 208° Southwest 437 503 36,000  Level FlightAware ADS-B
Sat 05:35:21 AM 29.4710 -98.2538 209° Southwest 435 501 36,000  Level FlightAware ADS-B
Sat 05:35:40 AM 29.4334 -98.2777 210° Southwest 435 501 36,000  Level FlightAware ADS-B
Sat 05:35:52 AM 29.4137 -98.2903 210° Southwest 435 501 36,000  Level FlightAware ADS-B (KHPY)
Sat 05:36:16 AM 29.3707 -98.3190 210° Southwest 436 502 36,000  Level FlightAware ADS-B
Sat 05:36:22 AM 29.3678 -98.3212 210° Southwest 436 502 36,000  Level FlightAware ADS-B (KHPY)
Sat 05:37:00 AM 29.2921 -98.3703 209° Southwest 436 502 36,000  Level FlightAware ADS-B
Sat 05:37:22 AM 29.2751 -98.3805 210° Southwest 436 502 36,000  Level FlightAware ADS-B (KHPY)
Sat 05:37:49 AM 29.2100 -98.4222 210° Southwest 436 502 36,000  Level FlightAware ADS-B (KHPY)
Sat 05:39:14 AM 29.0568 -98.5203 210° Southwest 437 503 36,000  Level FlightAware ADS-B (KHPY)
Sat 05:40:57 AM 28.8781 -98.6331 210° Southwest 437 503 36,000  Level FlightAware ADS-B (KHPY)
Sat 05:41:25 AM 28.8381 -98.6590 210° Southwest 437 503 36,000  Level FlightAware ADS-B (KHPY)
Sat 05:41:47 AM 28.7991 -98.6836 210° Southwest 437 503 36,000  Level FlightAware ADS-B (KHPY)
Sat 05:42:05 AM 28.7532 -98.7128 209° Southwest 437 503 36,000  Level FlightAware ADS-B
Sat 05:42:53 AM 28.6718 -98.7643 210° Southwest 436 502 36,000  Level FlightAware ADS-B (KHPY)
Sat 05:43:14 AM 28.6304 -98.7900 209° Southwest 436 502 36,000  Level FlightAware ADS-B
Sat 05:43:44 AM 28.6004 -98.8089 210° Southwest 436 502 36,000  Level FlightAware ADS-B (KHPY)
Sat 05:44:27 AM 28.5037 -98.8701 210° Southwest 434 499 36,000  Level FlightAware ADS-B (KHPY)
Sat 05:44:40 AM 28.4800 -98.8856 209° Southwest 435 501 36,000  Level FlightAware ADS-B
Sat 05:44:57 AM 28.4490 -98.9045 210° Southwest 434 499 36,000  Level FlightAware ADS-B (KHPY)
Sat 05:45:19 AM 28.4110 -98.9289 209° Southwest 434 499 36,000  Level FlightAware ADS-B
Sat 05:45:24 AM 28.4057 -98.9322 210° Southwest 433 498 36,000  Level FlightAware ADS-B (KHPY)
Sat 05:45:53 AM 28.3566 -98.9632 209° Southwest 434 499 36,000  Level FlightAware ADS-B
Sat 05:46:27 AM 28.2917 -99.0039 209° Southwest 433 498 36,000  Level FlightAware ADS-B (KHPY)
Sat 05:46:32 AM 28.2823 -99.0095 209° Southwest 433 498 36,000  Level FlightAware ADS-B
Sat 05:46:57 AM 28.2375 -99.0371 210° Southwest 433 498 36,000  Level FlightAware ADS-B (KHPY)
Sat 05:47:09 AM 28.2175 -99.0503 209° Southwest 434 499 36,000  Level FlightAware ADS-B
Sat 05:47:28 AM 28.1850 -99.0702 209° Southwest 434 499 36,000  Level FlightAware ADS-B (KHPY)
Sat 05:47:40 AM 28.1628 -99.0845 209° Southwest 434 499 36,000  Level FlightAware ADS-B
Sat 05:47:51 AM 28.1498 -99.0922 209° Southwest 434 499 36,000  Level FlightAware ADS-B (KHPY)
Sat 05:52:47 AM 27.6216 -99.4201 209° Southwest 432 497 36,000  Level FlightAware ADS-B
Sat 05:53:04 AM 27.6044 -99.4309 209° Southwest 432 497 36,000  Level FlightAware ADS-B
Sat 05:53:38 AM 27.5424 -99.4689 209° Southwest 432 497 36,000  Level FlightAware ADS-B
Sat 05:53:51 AM 27.5093 -99.4896 209° Southwest 433 498 36,000  Level FlightAware ADS-B
Sat 05:54:30 AM 27.4461 -99.5287 209° Southwest 433 498 36,000  Level FlightAware ADS-B
Sat 05:54:58 AM 27.4137 -99.5482 209° Southwest 433 498 36,000  Level FlightAware ADS-B
Sat 05:55:42 AM 27.3447 -99.5906 209° Southwest 433 498 36,000  Level FlightAware ADS-B
Sat 05:56:14 AM 27.2585 -99.6436 209° Southwest 433 498 36,000  Level FlightAware ADS-B
Sat 05:56:31 AM 27.2446 -99.6522 209° Southwest 432 497 36,000  Level FlightAware ADS-B
Sat 05:56:51 AM 27.2196 -99.6674 209° Southwest 432 497 36,000  Level FlightAware ADS-B
Sat 05:57:45 AM 27.0969 -99.7429 209° Southwest 433 498 36,000  Level FlightAware ADS-B
Sat 05:58:09 AM 27.0550 -99.7688 209° Southwest 432 497 36,000  Level FlightAware ADS-B
Sat 05:58:43 AM 26.9971 -99.8042 209° Southwest 432 497 36,000  Level FlightAware ADS-B
Sat 05:59:11 AM 26.9445 -99.8363 209° Southwest 432 497 36,000  Level FlightAware ADS-B
Sat 05:59:44 AM 26.8902 -99.8685 209° Southwest 431 496 36,000  Level FlightAware ADS-B
Sat 06:00:01 AM 26.8779 -99.8760 209° Southwest 431 496 36,000  Level FlightAware ADS-B
Sat 06:00:41 AM 26.7851 -99.9326 209° Southwest 431 496 36,000  Level FlightAware ADS-B
Sat 06:01:07 AM 26.7605 -99.9476 209° Southwest 431 496 36,000  Level FlightAware ADS-B
Sat 06:01:35 AM 26.7185 -99.9733 209° Southwest 432 497 36,000  Level FlightAware ADS-B
Sat 06:02:31 AM 26.5922 -100.0492 209° Southwest 433 498 36,000  Level FlightAware ADS-B
Sat 06:02:54 AM 26.5711 -100.0620 209° Southwest 433 498 36,000  Level FlightAware ADS-B
Sat 06:03:31 AM 26.4969 -100.1070 209° Southwest 435 501 36,000  Level FlightAware ADS-B
Sat 06:04:15 AM 26.4135 -100.1573 209° Southwest 435 501 36,000  Level FlightAware ADS-B
Sat 06:04:42 AM 26.3762 -100.1797 209° Southwest 435 501 36,000  Level FlightAware ADS-B
Sat 06:05:08 AM 26.3125 -100.2184 209° Southwest 435 501 36,000  Level FlightAware ADS-B
Sat 06:05:44 AM 26.2491 -100.2569 209° Southwest 436 502 36,000  Level FlightAware ADS-B
Sat 06:06:16 AM 26.1927 -100.2900 209° Southwest 437 503 36,000  Level FlightAware ADS-B
Sat 06:06:47 AM 26.1363 -100.3243 209° Southwest 437 503 36,000  Level FlightAware ADS-B
Sat 06:07:17 AM 26.0833 -100.3553 209° Southwest 437 503 36,000  Level FlightAware ADS-B
Sat 06:07:48 AM 26.0275 -100.3896 209° Southwest 437 503 36,000  Level FlightAware ADS-B
Sat 06:08:13 AM 25.9859 -100.4142 209° Southwest 437 503 36,000  Level FlightAware ADS-B
Sat 06:08:46 AM 25.9232 -100.4518 209° Southwest 438 504 36,000  Level FlightAware ADS-B
Sat 06:09:14 AM 25.8736 -100.4816 209° Southwest 438 504 36,000  Level FlightAware ADS-B
Sat 06:09:44 AM 25.8190 -100.5135 209° Southwest 438 504 36,000  Level FlightAware ADS-B
Sat 06:10:13 AM 25.7678 -100.5445 209° Southwest 438 504 36,000  Level FlightAware ADS-B
Sat 06:10:46 AM 25.7093 -100.5785 209° Southwest 439 505 36,000  Level FlightAware ADS-B
Sat 06:11:15 AM 25.6577 -100.6095 209° Southwest 439 505 36,000  Level FlightAware ADS-B
Sat 06:11:47 AM 25.5990 -100.6447 209° Southwest 439 505 36,000  Level FlightAware ADS-B
Sat 06:12:18 AM 25.5433 -100.6777 209° Southwest 440 506 36,000  Level FlightAware ADS-B
Sat 06:12:47 AM 25.4908 -100.7086 209° Southwest 440 506 36,000  Level FlightAware ADS-B
Sat 06:13:17 AM 25.4364 -100.7406 209° Southwest 440 506 36,000  Level FlightAware ADS-B
Sat 06:13:40 AM 25.3962 -100.7641 209° Southwest 440 506 36,000  Level FlightAware ADS-B
Sat 06:14:18 AM 25.3274 -100.8056 209° Southwest 441 507 36,000  Level FlightAware ADS-B
Sat 06:14:46 AM 25.2761 -100.8355 209° Southwest 441 507 36,000  Level FlightAware ADS-B
Sat 06:15:14 AM 25.2269 -100.8642 209° Southwest 441 507 36,000  Level FlightAware ADS-B
Sat 06:15:40 AM 25.2005 -100.8800 209° Southwest 442 509 36,000  Level FlightAware ADS-B
Sat 06:18:00 AM 24.9611 -101.0092 206° Southwest  Level Estimated
Sat 06:19:00 AM 24.8585 -101.0644 206° Southwest  Level Estimated
Sat 06:20:00 AM 24.7558 -101.1195 206° Southwest  Level Estimated
Sat 06:21:00 AM 24.6455 -101.1521 195° South  Level FlightAware Approximate
Sat 06:22:00 AM 24.5352 -101.1847 195° South  Level FlightAware Approximate
Sat 06:23:00 AM 24.4330 -101.2407 218° Southwest  Level Estimated
Sat 06:24:00 AM 24.3427 -101.3174 218° Southwest  Level FlightAware Approximate
Sat 06:25:00 AM 24.2523 -101.3941 218° Southwest  Level FlightAware Approximate
Sat 06:26:00 AM 24.1495 -101.4485 200° South  Level Estimated
Sat 06:27:00 AM 24.0448 -101.4985 204° Southwest  Level FlightAware Approximate
Sat 06:28:00 AM 23.9401 -101.5484 204° Southwest  Level FlightAware Approximate
Sat 06:29:00 AM 23.8373 -101.6029 197° South  Level Estimated
Sat 06:30:00 AM 23.7271 -101.6357 195° South  Level FlightAware Approximate
Sat 06:31:00 AM 23.6169 -101.6684 195° South  Level FlightAware Approximate
Sat 06:32:00 AM 23.5147 -101.7240 197° South  Level Estimated
Sat 06:33:00 AM 23.4020 -101.7438 189° South  Level FlightAware Approximate
Sat 06:34:00 AM 23.3003 -101.8004 197° South  Level Estimated
Sat 06:35:00 AM 23.1902 -101.8335 195° South  Level FlightAware Approximate
Sat 06:36:00 AM 23.0801 -101.8665 195° South  Level FlightAware Approximate
Sat 06:37:00 AM 22.9700 -101.8995 195° South  Level FlightAware Approximate
Sat 06:38:00 AM 22.8599 -101.9324 195° South  Level FlightAware Approximate
Sat 06:39:00 AM 22.7498 -101.9653 195° South  Level FlightAware Approximate
Sat 06:40:00 AM 22.6504 -102.0264 196° South  Level Estimated
Sat 06:41:00 AM 22.5376 -102.0458 189° South  Level FlightAware Approximate
Sat 06:42:00 AM 22.4393 -102.1086 223° Southwest  Level Estimated
Sat 06:43:00 AM 22.3408 -102.1712 196° South  Level Estimated
Sat 06:44:00 AM 22.2270 -102.1813 185° South  Level FlightAware Approximate
Sat 06:45:00 AM 22.1132 -102.1914 185° South  Level FlightAware Approximate
Sat 06:46:00 AM 22.0179 -102.2593 197° South  Level Estimated
Sat 06:47:00 AM 21.9046 -102.2747 187° South  Level FlightAware Approximate
Sat 06:48:00 AM 21.7913 -102.2899 187° South  Level FlightAware Approximate
Sat 06:49:00 AM 21.7001 -102.3640 218° Southwest  Level Estimated
Sat 06:50:00 AM 21.6015 -102.4260 210° Southwest  Level FlightAware Approximate
Sat 06:51:00 AM 21.5109 -102.5008 217° Southwest  Level Estimated
Sat 06:52:00 AM 21.4173 -102.5711 215° Southwest  Level FlightAware Approximate
Sat 06:53:00 AM 21.3236 -102.6412 215° Southwest  Level FlightAware Approximate
Sat 06:54:00 AM 21.2299 -102.7113 215° Southwest  Level FlightAware Approximate
Sat 06:55:00 AM 21.1405 -102.7874 223° Southwest  Level Estimated
Sat 06:56:00 AM 21.0534 -102.8666 220° Southwest  Level FlightAware Approximate
Sat 06:57:00 AM 20.9635 -102.9421 214° Southwest  Level Estimated
Sat 06:58:00 AM 20.8680 -103.0091 213° Southwest  Level FlightAware Approximate
Sat 06:59:00 AM 20.7795 -103.0864 231° Southwest  Level Estimated
Sat 07:00:00 AM 20.6911 -103.1637 215° Southwest  Level Estimated
Sat 07:01:00 AM 20.6026 -103.2408 215° Southwest  Level Estimated
Sat 07:02:00 AM 20.5218 -103.3112 270° West  Level Estimated
Sat 07:03:00 AM 20.5218 -103.3112 270° West  Level Estimated
Sat 07:04:00 AM 20.5218 -103.3112 270° West  Level Estimated
Sat 07:05:00 AM 20.5218 -103.3112 270° West  Level Estimated

Login

Don't have an account? Register now (free) for customized features, flight alerts, and more!